createdAt,value
2019-02-26T00:01:30.831Z,8.70
2019-02-26T00:04:00.786Z,8.70
2019-02-26T00:06:30.609Z,8.70
2019-02-26T00:09:01.937Z,8.60
2019-02-26T00:11:33.445Z,8.60
2019-02-26T00:14:03.318Z,8.60
2019-02-26T00:16:37.643Z,8.50
2019-02-26T00:19:05.546Z,8.50
2019-02-26T00:21:36.162Z,8.40
2019-02-26T00:24:07.321Z,8.30
2019-02-26T00:26:38.566Z,8.20
2019-02-26T00:29:08.844Z,8.20
2019-02-26T00:31:38.761Z,8.10
2019-02-26T00:34:10.768Z,8.00
2019-02-26T00:36:40.069Z,8.00
2019-02-26T00:39:10.207Z,8.00
2019-02-26T00:41:40.443Z,7.90
2019-02-26T00:44:10.196Z,8.00
2019-02-26T00:46:39.852Z,8.00
2019-02-26T00:49:09.657Z,7.90
2019-02-26T00:51:41.723Z,7.90
2019-02-26T00:54:10.913Z,7.80
2019-02-26T00:56:41.085Z,7.70
2019-02-26T00:59:10.838Z,7.60
2019-02-26T01:01:44.074Z,7.60
2019-02-26T01:04:12.230Z,7.60
2019-02-26T01:06:41.970Z,7.70
2019-02-26T01:09:13.418Z,7.70
2019-02-26T01:11:45.071Z,7.80
2019-02-26T01:14:15.787Z,7.80
2019-02-26T01:16:48.184Z,7.80
2019-02-26T01:19:19.726Z,7.80
2019-02-26T01:21:49.238Z,7.70
2019-02-26T01:24:18.896Z,7.70
2019-02-26T01:26:48.643Z,7.80
2019-02-26T01:29:20.651Z,7.70
2019-02-26T01:31:49.832Z,7.70
2019-02-26T01:34:20.381Z,7.70
2019-02-26T01:36:50.290Z,7.70
2019-02-26T01:39:21.547Z,7.70
2019-02-26T01:41:53.999Z,7.80
2019-02-26T01:44:23.039Z,7.80
2019-02-26T01:46:53.343Z,7.70
2019-02-26T01:49:26.647Z,7.70
2019-02-26T01:51:55.991Z,7.80
2019-02-26T01:54:25.757Z,7.80
2019-02-26T01:56:55.473Z,7.80
2019-02-26T01:59:25.344Z,7.80
2019-02-26T02:01:56.088Z,7.70
2019-02-26T02:04:25.864Z,7.70
2019-02-26T02:06:57.107Z,7.60
2019-02-26T02:09:27.285Z,7.60
2019-02-26T02:11:58.258Z,7.50
2019-02-26T02:14:28.843Z,7.50
2019-02-26T02:16:58.652Z,7.60
2019-02-26T02:19:30.187Z,7.40
2019-02-26T02:21:59.787Z,7.20
2019-02-26T02:24:29.672Z,7.10
2019-02-26T02:27:00.307Z,7.10
2019-02-26T02:29:30.178Z,7.00
2019-02-26T02:32:02.829Z,6.80
2019-02-26T02:34:32.984Z,6.80
2019-02-26T02:37:03.003Z,6.80
2019-02-26T02:39:32.849Z,6.70
2019-02-26T02:42:02.603Z,6.70
2019-02-26T02:44:32.271Z,6.60
2019-02-26T02:47:03.887Z,6.60
2019-02-26T02:49:36.467Z,6.70
2019-02-26T02:52:07.217Z,6.80
2019-02-26T02:54:38.436Z,6.80
2019-02-26T02:57:09.997Z,6.80
2019-02-26T02:59:42.299Z,6.80
2019-02-26T03:02:12.669Z,6.80
2019-02-26T03:04:42.725Z,6.80
2019-02-26T03:07:12.616Z,6.80
2019-02-26T03:09:43.224Z,6.80
2019-02-26T03:12:13.729Z,6.80
2019-02-26T03:14:44.541Z,6.80
2019-02-26T03:17:17.403Z,6.70
2019-02-26T03:19:45.811Z,6.60
2019-02-26T03:22:18.058Z,6.60
2019-02-26T03:24:48.362Z,6.50
2019-02-26T03:27:18.417Z,6.50
2019-02-26T03:29:49.949Z,6.50
2019-02-26T03:32:19.486Z,6.60
2019-02-26T03:34:49.198Z,6.50
2019-02-26T03:37:18.959Z,6.50
2019-02-26T03:39:48.637Z,6.50
2019-02-26T03:42:20.742Z,6.50
2019-02-26T03:44:49.897Z,6.50
2019-02-26T03:47:19.609Z,6.30
2019-02-26T03:49:49.352Z,6.30
2019-02-26T03:52:19.285Z,6.30
2019-02-26T03:54:50.677Z,6.20
2019-02-26T03:57:22.688Z,6.30
2019-02-26T03:59:52.153Z,6.30
2019-02-26T04:02:23.493Z,6.20
2019-02-26T04:04:54.386Z,6.20
2019-02-26T04:07:26.047Z,6.30
2019-02-26T04:09:58.583Z,6.30
2019-02-26T04:12:28.104Z,6.40
2019-02-26T04:14:58.024Z,6.40
2019-02-26T04:17:28.674Z,6.30
2019-02-26T04:19:59.307Z,6.30
2019-02-26T04:22:31.893Z,6.20
2019-02-26T04:25:18.201Z,6.20
2019-02-26T04:27:56.987Z,6.20
2019-02-26T04:30:39.347Z,6.30
2019-02-26T04:33:36.488Z,6.20
2019-02-26T04:36:26.929Z,6.10
2019-02-26T04:39:29.540Z,6.10
2019-02-26T04:42:19.769Z,6.00
2019-02-26T04:45:13.878Z,5.90
2019-02-26T04:48:00.711Z,5.90
2019-02-26T04:50:35.019Z,6.00
2019-02-26T04:53:05.030Z,6.10
2019-02-26T04:55:36.115Z,6.10
2019-02-26T04:58:05.384Z,6.10
2019-02-26T05:00:36.581Z,6.10
2019-02-26T05:03:08.645Z,6.10
2019-02-26T05:05:38.604Z,6.20
2019-02-26T05:08:10.515Z,6.20
2019-02-26T05:10:40.122Z,6.10
2019-02-26T05:13:09.895Z,6.00
2019-02-26T05:15:39.583Z,6.00
2019-02-26T05:18:09.228Z,5.90
2019-02-26T05:20:40.138Z,5.90
2019-02-26T05:23:10.329Z,5.90
2019-02-26T05:25:42.342Z,5.80
2019-02-26T05:28:12.540Z,5.90
2019-02-26T05:30:43.839Z,5.90
2019-02-26T05:33:14.843Z,5.90
2019-02-26T05:35:46.166Z,6.00
2019-02-26T05:38:17.211Z,5.90
2019-02-26T05:40:48.196Z,5.90
2019-02-26T05:43:20.421Z,5.90
2019-02-26T05:45:50.949Z,6.00
2019-02-26T05:48:25.801Z,5.90
2019-02-26T05:50:57.370Z,6.00
2019-02-26T05:53:26.630Z,5.80
2019-02-26T05:55:56.342Z,5.80
2019-02-26T05:58:26.022Z,5.70
2019-02-26T06:00:55.726Z,5.70
2019-02-26T06:03:25.386Z,5.70
2019-02-26T06:05:57.673Z,5.80
2019-02-26T06:08:29.535Z,5.90
2019-02-26T06:10:57.929Z,5.90
2019-02-26T06:13:29.050Z,6.00
2019-02-26T06:16:02.164Z,6.00
2019-02-26T06:18:31.970Z,6.00
2019-02-26T06:21:01.664Z,6.10
2019-02-26T06:23:33.930Z,6.10
2019-02-26T06:26:09.295Z,6.10
2019-02-26T06:28:40.177Z,6.10
2019-02-26T06:31:11.456Z,6.10
2019-02-26T06:33:41.283Z,6.10
2019-02-26T06:36:12.151Z,6.10
2019-02-26T06:38:41.860Z,6.10
2019-02-26T06:41:11.674Z,6.20
2019-02-26T06:43:45.007Z,6.20
2019-02-26T06:46:14.141Z,6.20
2019-02-26T06:48:44.163Z,6.20
2019-02-26T06:51:13.858Z,6.30
2019-02-26T06:53:47.150Z,6.30
2019-02-26T06:56:16.012Z,6.30
2019-02-26T06:58:47.464Z,6.30
2019-02-26T07:01:18.857Z,6.40
2019-02-26T07:03:48.581Z,6.50
2019-02-26T07:06:20.541Z,6.60
2019-02-26T07:08:51.168Z,6.60
2019-02-26T07:11:21.195Z,6.70
2019-02-26T07:13:50.923Z,6.80
2019-02-26T07:16:21.187Z,6.80
2019-02-26T07:18:51.053Z,6.90
2019-02-26T07:21:20.701Z,7.00
2019-02-26T07:23:51.679Z,7.00
2019-02-26T07:26:23.129Z,7.10
2019-02-26T07:28:52.897Z,7.10
2019-02-26T07:31:24.203Z,7.20
2019-02-26T07:33:55.869Z,7.30
2019-02-26T07:36:27.994Z,7.30
2019-02-26T07:38:57.075Z,7.50
2019-02-26T07:41:29.788Z,7.50
2019-02-26T07:43:59.966Z,7.60
2019-02-26T07:46:29.705Z,7.70
2019-02-26T07:49:01.889Z,7.80
2019-02-26T07:51:31.625Z,7.90
2019-02-26T07:54:02.297Z,7.90
2019-02-26T07:56:32.756Z,8.00
2019-02-26T07:59:06.757Z,8.10
2019-02-26T08:01:35.448Z,8.20
2019-02-26T08:04:06.249Z,8.30
2019-02-26T08:06:38.380Z,8.40
2019-02-26T08:09:10.952Z,8.50
2019-02-26T08:11:41.262Z,8.60
2019-02-26T08:14:11.434Z,8.60
2019-02-26T08:16:41.263Z,8.80
2019-02-26T08:19:10.963Z,8.80
2019-02-26T08:21:40.687Z,8.90
2019-02-26T08:24:12.378Z,9.00
2019-02-26T08:26:43.025Z,9.10
2019-02-26T08:29:13.237Z,9.20
2019-02-26T08:31:46.708Z,9.30
2019-02-26T08:34:15.782Z,9.30
2019-02-26T08:36:46.834Z,9.40
2019-02-26T08:39:16.641Z,9.40
2019-02-26T08:42:08.359Z,9.50
2019-02-26T08:44:38.144Z,9.60
2019-02-26T08:47:11.122Z,9.70
2019-02-26T08:49:40.686Z,9.80
2019-02-26T08:52:10.864Z,9.80
2019-02-26T08:54:40.575Z,10.00
2019-02-26T08:57:11.965Z,10.10
2019-02-26T08:59:42.656Z,10.20
2019-02-26T09:02:13.404Z,10.30
2019-02-26T09:04:45.073Z,10.50
2019-02-26T09:07:16.373Z,10.60
2019-02-26T09:09:48.097Z,10.70
2019-02-26T09:12:19.752Z,10.80
2019-02-26T09:14:49.933Z,10.90
2019-02-26T09:17:23.163Z,11.00
2019-02-26T09:19:56.057Z,11.00
2019-02-26T09:22:23.593Z,11.20
2019-02-26T09:24:54.463Z,11.20
2019-02-26T09:27:27.085Z,11.30
2019-02-26T09:29:56.465Z,11.40
2019-02-26T09:32:28.215Z,11.50
2019-02-26T09:34:59.198Z,11.60
2019-02-26T09:37:28.986Z,11.70
2019-02-26T09:39:59.339Z,11.70
2019-02-26T09:42:32.373Z,11.80
2019-02-26T09:45:01.570Z,11.80
2019-02-26T09:47:33.477Z,11.90
2019-02-26T09:50:03.335Z,11.90
2019-02-26T09:52:33.027Z,12.00
2019-02-26T09:55:02.750Z,12.00
2019-02-26T09:57:32.523Z,12.10
2019-02-26T10:00:03.329Z,12.10
2019-02-26T10:02:33.378Z,12.30
2019-02-26T10:05:03.051Z,12.40
2019-02-26T10:07:35.541Z,12.40
2019-02-26T10:10:08.471Z,12.40
2019-02-26T10:12:39.336Z,12.50
2019-02-26T10:15:13.159Z,12.50
2019-02-26T10:17:45.091Z,12.70
2019-02-26T10:20:30.993Z,12.70
2019-02-26T10:23:00.662Z,12.70
2019-02-26T10:25:31.978Z,12.70
2019-02-26T10:28:05.710Z,12.80
2019-02-26T10:30:34.031Z,12.90
2019-02-26T10:33:06.430Z,12.90
2019-02-26T10:35:38.720Z,13.00
2019-02-26T10:38:11.115Z,13.00
2019-02-26T10:40:50.613Z,13.10
2019-02-26T10:43:11.073Z,13.10
2019-02-26T10:45:42.457Z,13.40
2019-02-26T10:48:13.756Z,13.50
2019-02-26T10:50:46.966Z,13.60
2019-02-26T10:53:19.361Z,13.80
2019-02-26T10:55:47.612Z,13.80
2019-02-26T10:58:17.403Z,13.90
2019-02-26T11:00:52.064Z,14.00
2019-02-26T11:03:20.594Z,14.20
2019-02-26T11:05:52.168Z,14.10
2019-02-26T11:08:24.553Z,13.90
2019-02-26T11:10:53.413Z,14.00
2019-02-26T11:13:25.677Z,14.20
2019-02-26T11:15:57.571Z,14.20
2019-02-26T11:18:26.149Z,14.20
2019-02-26T11:20:58.434Z,14.30
2019-02-26T11:23:30.968Z,14.60
2019-02-26T11:25:59.371Z,14.60
2019-02-26T11:28:32.721Z,14.80
2019-02-26T11:31:00.664Z,14.90
2019-02-26T11:33:30.540Z,15.20
2019-02-26T11:36:00.489Z,15.30
2019-02-26T11:38:30.224Z,15.50
2019-02-26T11:41:00.034Z,15.60
2019-02-26T11:43:29.731Z,15.50
2019-02-26T11:46:01.388Z,15.60
2019-02-26T11:48:33.185Z,15.60
2019-02-26T11:51:02.592Z,15.70
2019-02-26T11:53:32.349Z,15.80
2019-02-26T11:56:02.165Z,15.90
